createdAt,value
2023-04-16T00:01:44.251Z,6.53
2023-04-16T00:04:12.443Z,8.20
2023-04-16T00:06:40.479Z,6.87
2023-04-16T00:09:08.641Z,7.73
2023-04-16T00:11:36.984Z,7.87
2023-04-16T00:14:06.350Z,7.93
2023-04-16T00:16:34.689Z,7.83
2023-04-16T00:19:02.664Z,7.43
2023-04-16T00:21:31.213Z,7.20
2023-04-16T00:23:59.182Z,7.63
2023-04-16T00:26:27.093Z,7.37
2023-04-16T00:28:55.019Z,7.47
2023-04-16T00:31:29.884Z,7.43
2023-04-16T00:33:57.834Z,7.20
2023-04-16T00:36:27.105Z,7.07
2023-04-16T00:38:55.625Z,7.47
2023-04-16T00:41:23.746Z,7.27
2023-04-16T00:43:51.850Z,7.30
2023-04-16T00:46:21.339Z,7.03
2023-04-16T00:48:52.249Z,7.53
2023-04-16T00:51:20.600Z,6.70
2023-04-16T00:53:48.718Z,7.33
2023-04-16T00:56:17.768Z,7.17
2023-04-16T00:58:45.998Z,7.17
2023-04-16T01:01:15.131Z,7.70
2023-04-16T01:03:46.234Z,7.37
2023-04-16T01:06:16.160Z,7.03
2023-04-16T01:08:44.271Z,7.30
2023-04-16T01:11:12.521Z,6.93
2023-04-16T01:13:40.426Z,7.90
2023-04-16T01:16:08.847Z,8.10
2023-04-16T01:18:37.260Z,8.57
2023-04-16T01:21:07.222Z,6.53
2023-04-16T01:23:35.265Z,7.30
2023-04-16T01:26:03.258Z,7.23
2023-04-16T01:28:31.163Z,7.63
2023-04-16T01:30:59.118Z,8.27
2023-04-16T01:33:27.134Z,7.23
2023-04-16T01:35:55.039Z,8.90
2023-04-16T01:38:24.395Z,8.03
2023-04-16T01:40:57.497Z,8.77
2023-04-16T01:43:25.420Z,7.73
2023-04-16T01:45:53.856Z,8.07
2023-04-16T01:48:21.908Z,7.90
2023-04-16T01:50:49.804Z,8.40
2023-04-16T01:53:17.718Z,8.47
2023-04-16T01:55:48.225Z,7.27
2023-04-16T01:58:16.138Z,7.73
2023-04-16T02:00:44.085Z,8.97
2023-04-16T02:03:12.248Z,7.73
2023-04-16T02:05:40.256Z,7.87
2023-04-16T02:08:08.164Z,8.33
2023-04-16T02:10:36.091Z,7.53
2023-04-16T02:13:05.358Z,7.70
2023-04-16T02:15:33.248Z,8.50
2023-04-16T02:18:01.203Z,7.70
2023-04-16T02:20:29.126Z,8.23
2023-04-16T02:22:57.027Z,8.40
2023-04-16T02:25:25.159Z,8.77
2023-04-16T02:27:53.083Z,7.63
2023-04-16T02:30:22.644Z,7.80
2023-04-16T02:32:50.886Z,8.27
2023-04-16T02:35:18.855Z,8.30
2023-04-16T02:37:46.785Z,8.17
2023-04-16T02:40:14.868Z,7.70
2023-04-16T02:42:42.819Z,8.87
2023-04-16T02:45:12.492Z,7.70
2023-04-16T02:47:41.849Z,9.13
2023-04-16T02:50:10.180Z,8.77
2023-04-16T02:52:38.177Z,8.40
2023-04-16T02:55:06.740Z,8.80
2023-04-16T02:57:34.850Z,8.13
2023-04-16T03:00:04.511Z,7.97
2023-04-16T03:02:32.713Z,8.50
2023-04-16T03:05:02.045Z,7.73
2023-04-16T03:07:30.047Z,8.80
2023-04-16T03:09:58.018Z,8.07
2023-04-16T03:12:25.912Z,7.77
2023-04-16T03:14:53.824Z,8.77
2023-04-16T03:17:21.758Z,8.90
2023-04-16T03:19:50.877Z,8.03
2023-04-16T03:22:20.252Z,8.63
2023-04-16T03:24:48.212Z,8.00
2023-04-16T03:27:16.321Z,8.67
2023-04-16T03:29:44.211Z,7.63
2023-04-16T03:32:12.783Z,8.40
2023-04-16T03:34:40.900Z,8.73
2023-04-16T03:37:12.085Z,8.27
2023-04-16T03:39:41.546Z,7.73
2023-04-16T03:42:09.486Z,8.27
2023-04-16T03:44:37.429Z,8.37
2023-04-16T03:47:05.333Z,7.53
2023-04-16T03:49:33.233Z,8.80
2023-04-16T03:52:01.145Z,8.53
2023-04-16T03:54:29.031Z,8.90
2023-04-16T03:56:58.387Z,8.57
2023-04-16T03:59:26.298Z,8.37
2023-04-16T04:01:54.232Z,9.20
2023-04-16T04:04:22.215Z,9.47
2023-04-16T04:06:50.199Z,8.10
2023-04-16T04:09:18.083Z,8.30
2023-04-16T04:11:45.991Z,8.03
2023-04-16T04:14:15.400Z,8.00
2023-04-16T04:16:43.406Z,8.20
2023-04-16T04:19:11.666Z,9.43
2023-04-16T04:21:40.110Z,7.90
2023-04-16T04:24:08.017Z,7.93
2023-04-16T04:26:35.947Z,7.90
2023-04-16T04:29:03.906Z,8.17
2023-04-16T04:31:33.219Z,8.97
2023-04-16T04:34:01.110Z,7.73
2023-04-16T04:36:29.043Z,7.80
2023-04-16T04:38:56.924Z,8.80
2023-04-16T04:41:26.921Z,8.50
2023-04-16T04:43:54.844Z,8.87
2023-04-16T04:46:22.800Z,8.30
2023-04-16T04:48:52.119Z,7.70
2023-04-16T04:51:19.999Z,8.80
2023-04-16T04:53:47.894Z,7.87
2023-04-16T04:56:15.955Z,8.33
2023-04-16T04:58:44.253Z,8.13
2023-04-16T05:01:12.237Z,8.83
2023-04-16T05:03:40.200Z,9.07
2023-04-16T05:06:09.672Z,9.63
2023-04-16T05:08:37.631Z,8.33
2023-04-16T05:11:05.772Z,8.40
2023-04-16T05:13:33.653Z,8.70
2023-04-16T05:16:01.654Z,8.47
2023-04-16T05:18:29.532Z,8.93
2023-04-16T05:20:57.460Z,7.63
2023-04-16T05:23:26.720Z,8.73
2023-04-16T05:25:54.636Z,8.33
2023-04-16T05:28:22.570Z,8.80
2023-04-16T05:30:50.529Z,8.83
2023-04-16T05:33:18.471Z,8.47
2023-04-16T05:35:46.405Z,8.60
2023-04-16T05:38:14.309Z,8.37
2023-04-16T05:40:43.579Z,8.20
2023-04-16T05:43:11.594Z,9.10
2023-04-16T05:45:41.373Z,7.90
2023-04-16T05:48:10.083Z,8.63
2023-04-16T05:50:38.307Z,9.43
2023-04-16T05:53:07.400Z,9.30
2023-04-16T05:55:36.048Z,8.67
2023-04-16T05:58:05.428Z,8.10
2023-04-16T06:00:34.074Z,8.33
2023-04-16T06:03:02.198Z,8.57
2023-04-16T06:05:30.642Z,8.30
2023-04-16T06:07:58.615Z,8.73
2023-04-16T06:10:26.555Z,8.10
2023-04-16T06:12:54.460Z,7.23
2023-04-16T06:15:23.708Z,7.43
2023-04-16T06:17:51.701Z,8.97
2023-04-16T06:20:19.684Z,8.03
2023-04-16T06:22:47.562Z,8.53
2023-04-16T06:25:16.957Z,8.73
2023-04-16T06:27:46.048Z,8.27
2023-04-16T06:30:14.714Z,8.40
2023-04-16T06:32:44.532Z,8.53
2023-04-16T06:35:12.486Z,9.17
2023-04-16T06:37:40.414Z,8.67
2023-04-16T06:40:09.447Z,7.70
2023-04-16T06:42:37.416Z,7.57
2023-04-16T06:45:06.082Z,7.90
2023-04-16T06:47:34.048Z,8.27
2023-04-16T06:50:03.416Z,8.77
2023-04-16T06:52:31.502Z,8.07
2023-04-16T06:54:59.867Z,7.27
2023-04-16T06:57:27.765Z,7.87
2023-04-16T06:59:55.716Z,8.63
2023-04-16T07:02:23.754Z,8.33
2023-04-16T07:04:52.396Z,8.87
2023-04-16T07:07:21.743Z,8.70
2023-04-16T07:09:49.654Z,7.57
2023-04-16T07:12:17.566Z,8.07
2023-04-16T07:14:45.676Z,8.23
2023-04-16T07:17:13.560Z,7.70
2023-04-16T07:19:41.594Z,8.57
2023-04-16T07:22:09.569Z,8.53
2023-04-16T07:24:39.264Z,7.97
2023-04-16T07:27:07.157Z,8.37
2023-04-16T07:29:35.090Z,8.60
2023-04-16T07:32:03.021Z,8.47
2023-04-16T07:34:31.087Z,7.83
2023-04-16T07:36:59.038Z,7.27
2023-04-16T07:40:06.692Z,8.23
2023-04-16T07:42:34.621Z,7.60
2023-04-16T07:45:02.521Z,7.83
2023-04-16T07:47:30.472Z,7.90
2023-04-16T07:49:58.360Z,7.43
2023-04-16T07:52:26.755Z,8.03
2023-04-16T07:54:56.082Z,8.13
2023-04-16T07:57:23.978Z,8.03
2023-04-16T07:59:51.932Z,7.73
2023-04-16T08:02:19.963Z,7.27
2023-04-16T08:04:48.066Z,8.07
2023-04-16T08:07:16.142Z,7.73
2023-04-16T08:09:50.069Z,7.60
2023-04-16T08:12:19.557Z,7.60
2023-04-16T08:14:47.758Z,7.80
2023-04-16T08:17:15.769Z,7.43
2023-04-16T08:19:43.876Z,7.60
2023-04-16T08:22:12.014Z,8.07
2023-04-16T08:24:39.934Z,7.57
2023-04-16T08:27:17.693Z,7.60
2023-04-16T08:29:48.352Z,6.80
2023-04-16T08:32:16.338Z,7.60
2023-04-16T08:34:44.260Z,7.50
2023-04-16T08:37:12.166Z,8.37
2023-04-16T08:39:40.076Z,7.70
2023-04-16T08:42:14.454Z,8.53
2023-04-16T08:44:46.383Z,6.97
2023-04-16T08:47:17.106Z,8.10
2023-04-16T08:49:45.905Z,7.23
2023-04-16T08:52:20.792Z,7.53
2023-04-16T08:54:57.087Z,8.00
2023-04-16T08:57:25.452Z,7.87
2023-04-16T08:59:54.758Z,8.00
2023-04-16T09:02:24.479Z,7.73
2023-04-16T09:04:55.313Z,6.03
2023-04-16T09:07:23.339Z,7.77
2023-04-16T09:09:53.246Z,7.13
2023-04-16T09:12:23.345Z,7.40
2023-04-16T09:14:51.369Z,8.00
2023-04-16T09:17:19.722Z,7.57
2023-04-16T09:19:49.080Z,6.80
2023-04-16T09:22:17.576Z,7.27
2023-04-16T09:24:45.458Z,7.10
2023-04-16T09:27:13.720Z,7.23
2023-04-16T09:29:42.583Z,7.70
2023-04-16T09:32:11.520Z,6.77
2023-04-16T09:34:59.487Z,7.10
2023-04-16T09:37:29.693Z,7.50
2023-04-16T09:40:00.079Z,7.40
2023-04-16T09:42:29.630Z,7.40
2023-04-16T09:45:00.314Z,8.10
2023-04-16T09:47:42.577Z,7.47
2023-04-16T09:50:18.128Z,8.10
2023-04-16T09:52:49.684Z,7.57
2023-04-16T09:55:19.327Z,7.33
2023-04-16T09:57:48.843Z,7.10
2023-04-16T10:00:19.995Z,7.30
2023-04-16T10:02:50.628Z,7.27
2023-04-16T10:05:21.337Z,7.93
2023-04-16T10:07:49.895Z,7.77
2023-04-16T10:10:18.145Z,7.80
2023-04-16T10:12:46.460Z,7.60
2023-04-16T10:15:14.540Z,7.90
2023-04-16T10:17:42.526Z,7.07
2023-04-16T10:20:10.969Z,7.13
2023-04-16T10:22:40.486Z,6.67
2023-04-16T10:25:09.246Z,7.20
2023-04-16T10:27:38.298Z,8.17
2023-04-16T10:30:07.818Z,7.13
2023-04-16T10:32:36.146Z,7.10
2023-04-16T10:35:05.134Z,7.80
2023-04-16T10:37:33.223Z,6.93
2023-04-16T10:40:02.778Z,7.37
2023-04-16T10:42:30.801Z,7.03
2023-04-16T10:45:01.273Z,8.07
2023-04-16T10:47:30.518Z,7.70
2023-04-16T10:49:59.454Z,7.97
2023-04-16T10:52:30.721Z,7.63
2023-04-16T10:55:02.048Z,7.30
2023-04-16T10:57:30.902Z,6.90
2023-04-16T10:59:59.394Z,7.00
2023-04-16T11:02:30.604Z,7.73
2023-04-16T11:04:58.886Z,7.33
2023-04-16T11:07:34.930Z,6.93
2023-04-16T11:10:05.439Z,7.37
2023-04-16T11:12:37.561Z,6.50
2023-04-16T11:15:07.350Z,6.93
2023-04-16T11:17:39.166Z,7.00
2023-04-16T11:20:19.151Z,6.90
2023-04-16T11:22:49.593Z,7.17
2023-04-16T11:25:22.684Z,6.27
2023-04-16T11:27:50.866Z,7.00
2023-04-16T11:30:19.951Z,7.03
2023-04-16T11:32:48.024Z,7.57
2023-04-16T11:35:18.181Z,6.87
2023-04-16T11:37:46.847Z,7.33
2023-04-16T11:40:15.168Z,7.07
2023-04-16T11:42:44.983Z,6.10
2023-04-16T11:45:14.093Z,7.20
2023-04-16T11:47:46.096Z,7.03
2023-04-16T11:50:21.701Z,7.10
2023-04-16T11:52:50.049Z,6.77
2023-04-16T11:55:18.202Z,6.77
2023-04-16T11:57:47.921Z,6.83
2023-04-16T12:00:16.401Z,6.83
2023-04-16T12:02:45.363Z,6.43
2023-04-16T12:05:30.799Z,6.77
2023-04-16T12:07:59.548Z,6.67
2023-04-16T12:10:27.744Z,6.47
2023-04-16T12:12:58.150Z,6.43
2023-04-16T12:15:44.840Z,6.77
2023-04-16T12:18:12.934Z,6.40
2023-04-16T12:20:42.714Z,6.37
2023-04-16T12:23:10.753Z,6.67
2023-04-16T12:25:38.692Z,6.83
2023-04-16T12:28:08.159Z,6.93
2023-04-16T12:30:36.196Z,6.33
2023-04-16T12:33:17.316Z,6.50
2023-04-16T12:35:45.197Z,7.23
2023-04-16T12:38:15.438Z,5.60
2023-04-16T12:40:43.953Z,5.90
2023-04-16T12:43:13.314Z,6.63
2023-04-16T12:45:41.900Z,6.33
2023-04-16T12:48:10.294Z,6.60
2023-04-16T12:50:39.682Z,6.67
2023-04-16T12:53:07.699Z,6.37
2023-04-16T12:55:35.660Z,7.53
2023-04-16T12:58:03.562Z,7.37
2023-04-16T13:00:32.898Z,6.33
2023-04-16T13:03:01.061Z,6.60
2023-04-16T13:05:29.146Z,6.50
2023-04-16T13:07:57.082Z,7.50
2023-04-16T13:10:25.027Z,6.60
2023-04-16T13:12:53.033Z,6.60
2023-04-16T13:15:21.020Z,6.77
2023-04-16T13:17:50.353Z,7.13
2023-04-16T13:20:18.499Z,6.87
2023-04-16T13:22:46.419Z,6.80
2023-04-16T13:25:14.374Z,6.40
2023-04-16T13:27:42.302Z,6.17
2023-04-16T13:30:11.086Z,6.70
2023-04-16T13:32:39.108Z,6.17
2023-04-16T13:35:09.368Z,5.90
2023-04-16T13:37:38.096Z,6.53
2023-04-16T13:40:07.395Z,6.60
2023-04-16T13:42:35.511Z,6.57
2023-04-16T13:45:03.629Z,6.63
2023-04-16T13:47:31.568Z,6.57
2023-04-16T13:49:59.507Z,6.30
2023-04-16T13:52:28.797Z,6.40
2023-04-16T13:54:57.839Z,6.40
2023-04-16T13:57:27.921Z,6.37
2023-04-16T13:59:56.612Z,6.60
2023-04-16T14:02:26.053Z,7.43
2023-04-16T14:04:54.139Z,6.13
2023-04-16T14:07:27.051Z,6.20
2023-04-16T14:09:56.393Z,6.17
2023-04-16T14:12:24.309Z,6.83
2023-04-16T14:14:52.239Z,6.03
2023-04-16T14:17:20.212Z,7.53
2023-04-16T14:19:48.207Z,5.73
2023-04-16T14:22:17.883Z,5.97
2023-04-16T14:24:46.214Z,6.17
2023-04-16T14:27:16.973Z,7.03
2023-04-16T14:29:46.495Z,6.17
2023-04-16T14:32:14.710Z,7.03
2023-04-16T14:34:42.715Z,6.63
2023-04-16T14:37:11.010Z,7.00
2023-04-16T14:39:39.359Z,5.53
2023-04-16T14:42:07.464Z,6.27
2023-04-16T14:44:36.727Z,6.77
2023-04-16T14:47:04.662Z,6.50
2023-04-16T14:49:32.893Z,6.40
2023-04-16T14:52:02.245Z,6.47
2023-04-16T14:54:30.192Z,6.73
2023-04-16T14:56:58.382Z,6.13
2023-04-16T14:59:26.302Z,6.10
2023-04-16T15:01:56.680Z,6.70
2023-04-16T15:04:25.689Z,6.77
2023-04-16T15:06:55.595Z,7.00
2023-04-16T15:09:23.677Z,7.20
2023-04-16T15:11:51.733Z,6.03
2023-04-16T15:14:19.955Z,6.60
2023-04-16T15:16:48.326Z,6.27
2023-04-16T15:19:17.659Z,7.27
2023-04-16T15:21:47.578Z,6.50
2023-04-16T15:24:16.845Z,7.10
2023-04-16T15:26:45.289Z,6.27
2023-04-16T15:29:13.215Z,7.00
2023-04-16T15:31:41.135Z,5.90
2023-04-16T15:34:09.397Z,7.03
2023-04-16T15:36:38.914Z,7.23
2023-04-16T15:39:06.868Z,6.33
2023-04-16T15:41:37.017Z,6.67
2023-04-16T15:44:05.052Z,6.90
2023-04-16T15:46:33.133Z,6.83
2023-04-16T15:49:01.065Z,7.40
2023-04-16T15:51:31.538Z,6.80
2023-04-16T15:54:00.890Z,6.67
2023-04-16T15:56:28.924Z,6.67
2023-04-16T15:58:56.811Z,7.10
2023-04-16T16:01:24.870Z,6.97
2023-04-16T16:03:52.985Z,7.27
2023-04-16T16:06:21.112Z,7.00
2023-04-16T16:08:50.185Z,6.77
2023-04-16T16:11:19.535Z,6.70
2023-04-16T16:13:47.490Z,7.40
2023-04-16T16:16:16.147Z,7.23
2023-04-16T16:18:44.100Z,6.80
2023-04-16T16:21:12.163Z,7.87
2023-04-16T16:23:40.067Z,6.63
2023-04-16T16:26:07.954Z,6.93
2023-04-16T16:28:37.926Z,6.73
2023-04-16T16:31:07.168Z,6.50
2023-04-16T16:33:35.116Z,6.70
2023-04-16T16:36:03.031Z,6.80
2023-04-16T16:38:31.234Z,6.87
2023-04-16T16:40:59.175Z,6.93
2023-04-16T16:43:27.191Z,7.43
2023-04-16T16:45:56.505Z,9.63
2023-04-16T16:48:24.726Z,7.40
2023-04-16T16:50:52.866Z,8.97
2023-04-16T16:53:20.780Z,8.80
2023-04-16T16:55:48.686Z,8.03
2023-04-16T16:58:16.616Z,7.43
2023-04-16T17:00:44.701Z,7.87
2023-04-16T17:03:14.592Z,8.10
2023-04-16T17:05:42.774Z,8.93
2023-04-16T17:08:10.690Z,8.30
2023-04-16T17:10:38.734Z,7.30
2023-04-16T17:13:06.736Z,7.70
2023-04-16T17:15:34.758Z,7.50
2023-04-16T17:18:02.694Z,8.07
2023-04-16T17:20:32.975Z,7.53
2023-04-16T17:23:00.915Z,7.60
2023-04-16T17:25:29.013Z,7.33
2023-04-16T17:27:56.920Z,7.90
2023-04-16T17:30:26.005Z,7.53
2023-04-16T17:32:53.997Z,6.87
2023-04-16T17:35:22.784Z,7.53
2023-04-16T17:37:52.410Z,6.90
2023-04-16T17:40:20.521Z,6.93
2023-04-16T17:42:49.959Z,7.37
2023-04-16T17:45:17.924Z,7.23
2023-04-16T17:47:45.860Z,7.47
2023-04-16T17:50:13.840Z,6.47
2023-04-16T17:52:42.038Z,7.37
2023-04-16T17:55:12.365Z,6.83
2023-04-16T17:57:40.326Z,6.90
2023-04-16T18:00:11.397Z,6.90
2023-04-16T18:02:40.907Z,6.70
2023-04-16T18:05:09.571Z,7.10
2023-04-16T18:07:38.971Z,7.40
2023-04-16T18:10:08.315Z,6.80
2023-04-16T18:12:37.670Z,8.20
2023-04-16T18:15:07.161Z,6.27
2023-04-16T18:17:35.132Z,6.90
2023-04-16T18:20:05.479Z,6.80
2023-04-16T18:22:33.415Z,7.13
2023-04-16T18:25:01.477Z,6.33
2023-04-16T18:27:32.414Z,6.87
2023-04-16T18:30:03.959Z,7.03
2023-04-16T18:32:33.245Z,7.77
2023-04-16T18:35:01.573Z,7.00
2023-04-16T18:37:31.462Z,6.60
2023-04-16T18:39:59.416Z,7.50
2023-04-16T18:42:29.424Z,6.90
2023-04-16T18:44:59.345Z,6.23
2023-04-16T18:47:28.895Z,7.67
2023-04-16T18:49:56.799Z,7.60
2023-04-16T18:52:24.720Z,7.23
2023-04-16T18:54:52.818Z,7.13
2023-04-16T18:57:20.725Z,7.93
2023-04-16T18:59:48.869Z,6.87
2023-04-16T19:02:16.867Z,7.70
2023-04-16T19:04:46.412Z,7.20
2023-04-16T19:07:14.294Z,7.20
2023-04-16T19:09:42.266Z,7.23
2023-04-16T19:12:10.185Z,8.03
2023-04-16T19:14:38.197Z,7.67
2023-04-16T19:17:06.140Z,6.93
2023-04-16T19:19:34.113Z,7.33
2023-04-16T19:22:03.410Z,7.10
2023-04-16T19:24:33.053Z,7.50
2023-04-16T19:27:02.681Z,7.03
2023-04-16T19:29:34.109Z,6.43
2023-04-16T19:32:02.483Z,7.43
2023-04-16T19:34:30.969Z,6.73
2023-04-16T19:36:58.887Z,7.57
2023-04-16T19:39:28.764Z,6.53
2023-04-16T19:41:56.764Z,6.83
2023-04-16T19:44:25.331Z,6.63
2023-04-16T19:46:53.255Z,7.20
2023-04-16T19:49:21.168Z,7.10
2023-04-16T19:51:49.193Z,7.57
2023-04-16T19:54:17.601Z,7.07
2023-04-16T19:56:46.971Z,6.90
2023-04-16T19:59:14.890Z,7.00
2023-04-16T20:01:42.921Z,6.80
2023-04-16T20:04:11.163Z,7.47
2023-04-16T20:06:39.202Z,7.17
2023-04-16T20:09:07.103Z,6.37
2023-04-16T20:11:35.768Z,7.40
2023-04-16T20:14:05.052Z,6.80
2023-04-16T20:16:33.704Z,6.97
2023-04-16T20:19:04.200Z,6.90
2023-04-16T20:21:33.804Z,6.30
2023-04-16T20:24:01.809Z,6.67
2023-04-16T20:26:33.738Z,7.30
2023-04-16T20:29:01.738Z,6.87
2023-04-16T20:31:31.211Z,6.30
2023-04-16T20:33:59.330Z,6.93
2023-04-16T20:36:27.933Z,6.80
2023-04-16T20:38:55.844Z,6.93
2023-04-16T20:41:25.257Z,6.67
2023-04-16T20:43:54.035Z,7.20
2023-04-16T20:46:24.301Z,7.13
2023-04-16T20:48:53.832Z,6.83
2023-04-16T20:51:21.713Z,8.13
2023-04-16T20:53:52.151Z,6.77
2023-04-16T20:56:20.603Z,6.80
2023-04-16T20:58:50.639Z,7.50
2023-04-16T21:01:18.683Z,6.97
2023-04-16T21:03:46.987Z,7.30
2023-04-16T21:06:17.777Z,7.70
2023-04-16T21:08:47.639Z,7.53
2023-04-16T21:11:15.673Z,7.43
2023-04-16T21:13:45.831Z,7.90
2023-04-16T21:16:13.787Z,7.87
2023-04-16T21:18:41.745Z,7.80
2023-04-16T21:21:09.674Z,7.20
2023-04-16T21:23:38.936Z,7.27
2023-04-16T21:26:08.438Z,6.97
2023-04-16T21:28:36.363Z,7.80
2023-04-16T21:31:04.295Z,7.10
2023-04-16T21:33:32.223Z,6.70
2023-04-16T21:36:37.420Z,6.93
2023-04-16T21:39:06.823Z,6.60
2023-04-16T21:41:34.673Z,6.93
2023-04-16T21:44:02.595Z,8.47
2023-04-16T21:46:30.643Z,7.00
2023-04-16T21:48:58.672Z,7.00
2023-04-16T21:51:30.179Z,8.03
2023-04-16T21:53:58.160Z,7.00
2023-04-16T21:56:27.483Z,7.07
2023-04-16T21:59:04.751Z,7.20
2023-04-16T22:01:32.765Z,7.53
2023-04-16T22:04:02.160Z,7.07
2023-04-16T22:06:30.124Z,6.87
2023-04-16T22:08:58.915Z,6.87
2023-04-16T22:11:30.685Z,7.40
2023-04-16T22:13:58.563Z,7.83
2023-04-16T22:16:26.698Z,7.27
2023-04-16T22:18:55.037Z,7.33
2023-04-16T22:21:22.973Z,6.97
2023-04-16T22:23:50.950Z,6.73
2023-04-16T22:26:21.653Z,6.90
2023-04-16T22:28:53.308Z,8.67
2023-04-16T22:31:30.564Z,7.33
2023-04-16T22:33:58.594Z,6.90
2023-04-16T22:36:26.878Z,7.43
2023-04-16T22:38:54.939Z,7.63
2023-04-16T22:41:22.911Z,7.87
2023-04-16T22:43:52.560Z,7.63
2023-04-16T22:46:22.365Z,7.97
2023-04-16T22:48:51.206Z,7.40
2023-04-16T22:51:19.075Z,7.60
2023-04-16T22:53:47.026Z,6.53
2023-04-16T22:56:14.915Z,7.50
2023-04-16T22:58:42.869Z,7.47
2023-04-16T23:01:12.254Z,7.47
2023-04-16T23:03:40.278Z,7.20
2023-04-16T23:06:08.325Z,7.83
2023-04-16T23:08:36.390Z,7.57
2023-04-16T23:11:04.299Z,7.93
2023-04-16T23:13:32.216Z,7.20
2023-04-16T23:16:00.238Z,7.57
2023-04-16T23:18:29.531Z,7.40
2023-04-16T23:20:57.410Z,7.20
2023-04-16T23:23:25.574Z,7.67
2023-04-16T23:25:54.228Z,7.70
2023-04-16T23:28:22.454Z,7.37
2023-04-16T23:30:52.866Z,6.70
2023-04-16T23:33:20.985Z,7.20
2023-04-16T23:35:50.267Z,7.13
2023-04-16T23:38:18.208Z,7.60
2023-04-16T23:40:46.117Z,7.03
2023-04-16T23:43:14.039Z,7.80
2023-04-16T23:45:42.042Z,7.47
2023-04-16T23:48:10.104Z,7.77
2023-04-16T23:50:38.044Z,8.10
2023-04-16T23:53:07.348Z,7.90
2023-04-16T23:55:35.256Z,7.43
2023-04-16T23:58:03.175Z,7.17
